Pisgah, Arkansas
Current Conditions -  °F | °C
As of 7:56 AM on Saturday 22 Nov 2014 (Local Time) from KADF Reporting Station
Light Rain Light Rain  
Wind Chill: 53°   Ceiling: Unl
Heat Index: 53°   Visibility: 6mi
Dew Point: 53°   Wind: 0mph
Humidity: 100%   Direction: NA
Pressure: 30.2"   Gusts: NA
Location:  34.0586°N, 93.5318°W
Report Text: KADF 221356Z AUTO 00000KT 6SM -RA BR FEW025 SCT070 12/12 A3020 RMK AO2 T01160116 RAB54 P0000 SLP240
Loading
Personal Weather Stations






























Interactive Weather Map New forecast layout! Learn more

10-Day Weather Forecast

Advertisements
Track Severe Weather on mobile